Aviation Digital Data Service (ADDS)

Output produced by METARs form (1105 UTC 18 June 2019)
found at http://www.aviationweather.gov/metar/data/
 
Forecast for: FGBT (BATA (RIO MUNI) , GQ)
Text: TAF FGBT 180500Z 1806/1906 16006KT 9999 SCT010
Forecast period: 0600 UTC 18 June 2019 to 0600 UTC 19 June 2019
Forecast type: FROM: standard forecast or significant change
Winds: from the SSE (160 degrees) at 7 MPH (6 knots; 3.1 m/s)
Visibility: 6 or more miles 10+ km)
Ceiling: at least 12,000 feet AGL
Clouds: scattered clouds at 1000 feet AGL
Weather: no significant weather forecast for this period
Text: PROB30
Forecast period: 1600 to 2200 UTC 18 June 2019
Forecast type: TEMPORARY: The following changes expected for less than half the time period
Visibility: missing
Ceiling: 1000 feet AGL
Clouds: broken clouds at 1000 feet AGL
few clouds at 2000 feet AGL
Weather: TS  (thunderstorm)